createdAt,value
2018-12-12T00:00:48.247Z,5.98
2018-12-12T00:01:48.214Z,6.10
2018-12-12T00:02:48.235Z,6.10
2018-12-12T00:03:48.231Z,5.93
2018-12-12T00:04:48.229Z,5.88
2018-12-12T00:05:48.214Z,5.92
2018-12-12T00:06:48.223Z,6.03
2018-12-12T00:07:48.185Z,6.11
2018-12-12T00:08:48.206Z,5.95
2018-12-12T00:09:48.193Z,5.99
2018-12-12T00:10:48.262Z,5.98
2018-12-12T00:11:48.161Z,5.90
2018-12-12T00:12:48.130Z,5.92
2018-12-12T00:13:48.167Z,5.92
2018-12-12T00:14:48.115Z,5.93
2018-12-12T00:15:48.179Z,6.02
2018-12-12T00:16:48.109Z,6.05
2018-12-12T00:17:48.105Z,6.03
2018-12-12T00:18:48.107Z,6.01
2018-12-12T00:19:48.083Z,6.06
2018-12-12T00:20:48.084Z,6.02
2018-12-12T00:21:48.055Z,6.02
2018-12-12T00:22:48.078Z,6.10
2018-12-12T00:23:48.085Z,6.11
2018-12-12T00:24:48.067Z,6.11
2018-12-12T00:25:48.057Z,6.08
2018-12-12T00:26:49.212Z,6.02
2018-12-12T00:27:51.220Z,5.98
2018-12-12T00:28:48.030Z,5.88
2018-12-12T00:29:49.468Z,5.90
2018-12-12T00:30:48.027Z,5.87
2018-12-12T00:31:49.199Z,5.83
2018-12-12T00:32:48.082Z,5.87
2018-12-12T00:33:49.273Z,5.75
2018-12-12T00:34:47.976Z,5.85
2018-12-12T00:35:47.984Z,5.87
2018-12-12T00:36:49.204Z,6.02
2018-12-12T00:37:49.205Z,6.03
2018-12-12T00:38:49.200Z,5.87
2018-12-12T00:39:49.493Z,5.93
2018-12-12T00:40:47.940Z,5.93
2018-12-12T00:41:49.487Z,5.85
2018-12-12T00:42:47.917Z,5.95
2018-12-12T00:43:49.316Z,5.98
2018-12-12T00:44:49.266Z,5.93
2018-12-12T00:45:47.892Z,5.92
2018-12-12T00:46:49.887Z,5.88
2018-12-12T00:47:49.298Z,5.95
2018-12-12T00:48:48.869Z,5.88
2018-12-12T00:49:49.314Z,5.93
2018-12-12T00:50:47.943Z,6.01
2018-12-12T00:51:49.489Z,6.02
2018-12-12T00:52:49.494Z,5.99
2018-12-12T00:53:49.009Z,6.02
2018-12-12T00:54:49.630Z,6.01
2018-12-12T00:55:49.539Z,6.05
2018-12-12T00:56:49.333Z,6.01
2018-12-12T00:57:49.389Z,6.11
2018-12-12T00:58:47.814Z,6.01
2018-12-12T00:59:49.643Z,5.98
2018-12-12T01:00:47.804Z,5.93
2018-12-12T01:01:49.336Z,5.93
2018-12-12T01:02:47.770Z,5.95
2018-12-12T01:03:49.341Z,5.88
2018-12-12T01:04:49.483Z,5.95
2018-12-12T01:05:47.768Z,5.93
2018-12-12T01:06:49.501Z,5.90
2018-12-12T01:07:49.575Z,5.93
2018-12-12T01:08:49.461Z,5.92
2018-12-12T01:09:48.005Z,5.95
2018-12-12T01:10:47.828Z,6.01
2018-12-12T01:11:49.373Z,5.92
2018-12-12T01:12:47.767Z,5.96
2018-12-12T01:13:47.690Z,5.90
2018-12-12T01:14:47.759Z,5.90
2018-12-12T01:15:47.708Z,5.88
2018-12-12T01:16:47.672Z,5.98
2018-12-12T01:17:49.290Z,5.75
2018-12-12T01:18:49.988Z,5.92
2018-12-12T01:19:47.662Z,5.87
2018-12-12T01:20:47.699Z,5.80
2018-12-12T01:21:49.531Z,5.87
2018-12-12T01:22:47.678Z,5.93
2018-12-12T01:23:49.281Z,5.83
2018-12-12T01:24:49.359Z,5.80
2018-12-12T01:25:47.618Z,5.80
2018-12-12T01:26:47.585Z,5.87
2018-12-12T01:27:47.613Z,5.84
2018-12-12T01:28:47.637Z,5.83
2018-12-12T01:29:49.301Z,5.84
2018-12-12T01:30:47.566Z,5.87
2018-12-12T01:31:49.510Z,5.96
2018-12-12T01:32:49.291Z,5.88
2018-12-12T01:33:49.421Z,5.83
2018-12-12T01:34:47.535Z,5.90
2018-12-12T01:35:47.532Z,5.90
2018-12-12T01:36:47.532Z,5.85
2018-12-12T01:37:48.385Z,5.78
2018-12-12T01:38:47.531Z,5.75
2018-12-12T01:39:49.303Z,5.83
2018-12-12T01:40:47.478Z,5.87
2018-12-12T01:41:49.302Z,5.83
2018-12-12T01:42:48.534Z,5.75
2018-12-12T01:43:49.444Z,5.78
2018-12-12T01:44:47.486Z,5.80
2018-12-12T01:45:48.960Z,5.73
2018-12-12T01:46:47.444Z,5.70
2018-12-12T01:47:49.304Z,5.81
2018-12-12T01:48:48.904Z,5.75
2018-12-12T01:49:49.477Z,5.80
2018-12-12T01:50:49.324Z,5.75
2018-12-12T01:51:48.475Z,5.88
2018-12-12T01:52:48.794Z,5.87
2018-12-12T01:53:49.357Z,5.78
2018-12-12T01:54:48.696Z,5.95
2018-12-12T01:55:48.905Z,5.83
2018-12-12T01:56:48.603Z,5.96
2018-12-12T01:57:47.593Z,5.88
2018-12-12T01:58:47.349Z,6.01
2018-12-12T01:59:49.139Z,5.96
2018-12-12T02:00:48.834Z,6.01
2018-12-12T02:01:48.872Z,5.90
2018-12-12T02:02:48.321Z,5.88
2018-12-12T02:03:48.337Z,5.99
2018-12-12T02:04:47.298Z,6.14
2018-12-12T02:05:47.340Z,5.99
2018-12-12T02:06:48.814Z,6.03
2018-12-12T02:07:47.288Z,6.16
2018-12-12T02:08:47.643Z,6.08
2018-12-12T02:09:47.298Z,6.10
2018-12-12T02:10:49.041Z,6.03
2018-12-12T02:11:47.283Z,6.06
2018-12-12T02:12:48.008Z,6.14
2018-12-12T02:13:47.243Z,6.14
2018-12-12T02:14:47.249Z,6.03
2018-12-12T02:15:47.239Z,6.02
2018-12-12T02:16:47.392Z,6.10
2018-12-12T02:17:48.988Z,6.10
2018-12-12T02:18:47.191Z,6.11
2018-12-12T02:19:47.187Z,6.06
2018-12-12T02:20:47.475Z,6.06
2018-12-12T02:21:48.725Z,6.14
2018-12-12T02:22:47.179Z,6.10
2018-12-12T02:23:48.704Z,6.11
2018-12-12T02:24:48.696Z,6.08
2018-12-12T02:25:47.143Z,6.08
2018-12-12T02:26:48.756Z,6.14
2018-12-12T02:27:48.760Z,6.10
2018-12-12T02:28:47.129Z,6.11
2018-12-12T02:29:48.647Z,6.05
2018-12-12T02:30:48.757Z,6.08
2018-12-12T02:31:48.685Z,6.14
2018-12-12T02:32:48.698Z,6.06
2018-12-12T02:33:48.626Z,6.06
2018-12-12T02:34:47.133Z,6.16
2018-12-12T02:35:50.627Z,6.13
2018-12-12T02:36:47.075Z,6.16
2018-12-12T02:37:48.649Z,6.13
2018-12-12T02:38:47.074Z,6.17
2018-12-12T02:39:48.546Z,6.11
2018-12-12T02:40:47.030Z,6.11
2018-12-12T02:41:48.563Z,6.05
2018-12-12T02:42:47.023Z,6.13
2018-12-12T02:43:48.653Z,6.08
2018-12-12T02:44:47.010Z,6.08
2018-12-12T02:45:47.086Z,6.08
2018-12-12T02:46:47.005Z,6.10
2018-12-12T02:47:48.634Z,6.11
2018-12-12T02:48:48.706Z,6.16
2018-12-12T02:49:48.706Z,6.19
2018-12-12T02:50:48.939Z,6.08
2018-12-12T02:51:48.635Z,6.13
2018-12-12T02:52:46.947Z,6.08
2018-12-12T02:53:48.589Z,6.20
2018-12-12T02:54:49.368Z,6.17
2018-12-12T02:55:48.093Z,6.08
2018-12-12T02:56:49.455Z,6.06
2018-12-12T02:57:48.503Z,6.08
2018-12-12T02:58:46.898Z,6.05
2018-12-12T02:59:46.888Z,6.10
2018-12-12T03:00:46.897Z,6.11
2018-12-12T03:01:50.187Z,6.10
2018-12-12T03:02:48.502Z,6.08
2018-12-12T03:03:48.493Z,6.13
2018-12-12T03:04:52.197Z,6.16
2018-12-12T03:05:48.427Z,6.11
2018-12-12T03:06:50.015Z,6.14
2018-12-12T03:07:47.820Z,6.11
2018-12-12T03:08:49.033Z,6.13
2018-12-12T03:09:48.613Z,6.21
2018-12-12T03:10:47.638Z,6.16
2018-12-12T03:11:47.663Z,6.13
2018-12-12T03:12:48.474Z,6.13
2018-12-12T03:13:48.324Z,6.05
2018-12-12T03:14:48.487Z,6.14
2018-12-12T03:15:48.482Z,6.10
2018-12-12T03:16:48.337Z,6.05
2018-12-12T03:17:48.297Z,6.05
2018-12-12T03:18:48.807Z,6.03
2018-12-12T03:19:48.346Z,6.05
2018-12-12T03:20:48.822Z,6.02
2018-12-12T03:21:46.827Z,6.06
2018-12-12T03:22:46.754Z,6.16
2018-12-12T03:23:48.344Z,6.16
2018-12-12T03:24:48.470Z,6.10
2018-12-12T03:25:48.477Z,6.14
2018-12-12T03:26:49.811Z,6.20
2018-12-12T03:27:48.845Z,6.17
2018-12-12T03:28:48.057Z,6.05
2018-12-12T03:29:50.318Z,6.14
2018-12-12T03:30:48.993Z,6.19
2018-12-12T03:31:48.303Z,6.16
2018-12-12T03:32:48.238Z,6.14
2018-12-12T03:33:47.689Z,6.13
2018-12-12T03:34:48.498Z,6.25
2018-12-12T03:35:48.523Z,6.16
2018-12-12T03:36:48.487Z,6.16
2018-12-12T03:37:48.376Z,6.11
2018-12-12T03:38:48.560Z,6.16
2018-12-12T03:39:49.532Z,6.08
2018-12-12T03:40:49.163Z,6.14
2018-12-12T03:41:48.337Z,6.17
2018-12-12T03:42:49.091Z,6.11
2018-12-12T03:43:47.568Z,6.13
2018-12-12T03:44:50.424Z,6.16
2018-12-12T03:45:48.278Z,6.17
2018-12-12T03:46:47.460Z,6.16
2018-12-12T03:47:48.573Z,6.13
2018-12-12T03:48:48.714Z,6.13
2018-12-12T03:49:47.684Z,6.19
2018-12-12T03:50:46.513Z,6.20
2018-12-12T03:51:48.307Z,6.11
2018-12-12T03:52:48.996Z,6.08
2018-12-12T03:53:48.331Z,6.05
2018-12-12T03:54:50.448Z,6.02
2018-12-12T03:55:47.391Z,6.13
2018-12-12T03:56:48.304Z,6.17
2018-12-12T03:57:48.331Z,6.16
2018-12-12T03:58:47.572Z,6.17
2018-12-12T03:59:49.615Z,6.05
2018-12-12T04:00:48.888Z,6.06
2018-12-12T04:01:47.760Z,6.13
2018-12-12T04:02:49.000Z,6.05
2018-12-12T04:03:47.664Z,6.16
2018-12-12T04:04:46.454Z,6.13
2018-12-12T04:05:48.021Z,6.19
2018-12-12T04:06:46.664Z,6.27
2018-12-12T04:07:47.343Z,6.30
2018-12-12T04:08:48.438Z,6.28
2018-12-12T04:09:46.388Z,6.17
2018-12-12T04:10:46.455Z,6.28
2018-12-12T04:11:46.360Z,6.24
2018-12-12T04:12:46.352Z,6.17
2018-12-12T04:13:46.342Z,6.16
2018-12-12T04:14:46.337Z,6.16
2018-12-12T04:15:49.370Z,6.21
2018-12-12T04:16:50.462Z,6.30
2018-12-12T04:17:48.790Z,6.28
2018-12-12T04:18:48.856Z,6.28
2018-12-12T04:19:48.423Z,6.24
2018-12-12T04:20:49.071Z,6.25
2018-12-12T04:21:49.539Z,6.21
2018-12-12T04:22:46.271Z,6.25
2018-12-12T04:23:50.676Z,6.19
2018-12-12T04:24:46.256Z,6.27
2018-12-12T04:25:48.433Z,6.25
2018-12-12T04:26:46.245Z,6.28
2018-12-12T04:27:48.983Z,6.17
2018-12-12T04:28:47.732Z,6.32
2018-12-12T04:29:48.680Z,6.28
2018-12-12T04:30:48.577Z,6.30
2018-12-12T04:31:47.810Z,6.30
2018-12-12T04:32:46.195Z,6.30
2018-12-12T04:33:48.616Z,6.21
2018-12-12T04:34:47.851Z,6.05
2018-12-12T04:35:48.657Z,6.01
2018-12-12T04:36:46.164Z,6.13
2018-12-12T04:37:47.806Z,6.16
2018-12-12T04:38:46.157Z,6.13
2018-12-12T04:39:48.654Z,6.13
2018-12-12T04:40:47.837Z,6.16
2018-12-12T04:41:48.319Z,6.11
2018-12-12T04:42:46.130Z,6.16
2018-12-12T04:43:48.123Z,6.16
2018-12-12T04:44:49.966Z,6.19
2018-12-12T04:45:47.810Z,6.05
2018-12-12T04:46:46.077Z,5.90
2018-12-12T04:47:46.093Z,5.87
2018-12-12T04:48:46.142Z,5.83
2018-12-12T04:49:47.796Z,5.92
2018-12-12T04:50:47.747Z,5.78
2018-12-12T04:51:47.723Z,5.80
2018-12-12T04:52:46.042Z,5.83
2018-12-12T04:53:47.823Z,5.75
2018-12-12T04:54:47.178Z,5.83
2018-12-12T04:55:47.147Z,5.83
2018-12-12T04:56:48.750Z,5.85
2018-12-12T04:57:47.735Z,5.90
2018-12-12T04:58:45.994Z,5.87
2018-12-12T04:59:47.248Z,5.85
2018-12-12T05:00:45.986Z,5.67
2018-12-12T05:01:47.250Z,5.70
2018-12-12T05:02:48.229Z,5.62
2018-12-12T05:03:45.962Z,5.67
2018-12-12T05:04:45.988Z,5.69
2018-12-12T05:05:45.993Z,5.60
2018-12-12T05:06:45.940Z,5.66
2018-12-12T05:07:45.926Z,5.67
2018-12-12T05:08:49.340Z,5.63
2018-12-12T05:09:45.925Z,5.62
2018-12-12T05:10:48.240Z,5.66
2018-12-12T05:11:45.915Z,5.69
2018-12-12T05:12:49.156Z,5.62
2018-12-12T05:13:48.578Z,5.55
2018-12-12T05:14:49.016Z,5.63
2018-12-12T05:15:47.231Z,5.55
2018-12-12T05:16:45.871Z,5.45
2018-12-12T05:17:45.957Z,5.60
2018-12-12T05:18:45.842Z,5.45
2018-12-12T05:19:49.975Z,5.52
2018-12-12T05:20:45.830Z,5.47
2018-12-12T05:21:48.561Z,5.51
2018-12-12T05:22:48.539Z,5.49
2018-12-12T05:23:48.344Z,5.47
2018-12-12T05:24:45.903Z,5.47
2018-12-12T05:25:48.312Z,5.55
2018-12-12T05:26:48.306Z,5.45
2018-12-12T05:27:46.002Z,5.47
2018-12-12T05:28:45.775Z,5.42
2018-12-12T05:29:47.489Z,5.44
2018-12-12T05:30:45.749Z,5.37
2018-12-12T05:31:49.171Z,5.52
2018-12-12T05:32:54.061Z,5.45
2018-12-12T05:33:45.838Z,5.41
2018-12-12T05:34:54.126Z,5.47
2018-12-12T05:35:45.876Z,5.48
2018-12-12T05:36:53.914Z,5.49
2018-12-12T05:37:51.834Z,5.48
2018-12-12T05:38:48.672Z,5.52
2018-12-12T05:39:48.739Z,5.55
2018-12-12T05:40:47.223Z,5.52
2018-12-12T05:41:48.178Z,5.51
2018-12-12T05:42:48.112Z,5.55
2018-12-12T05:43:49.799Z,5.45
2018-12-12T05:44:47.523Z,5.48
2018-12-12T05:45:48.237Z,5.60
2018-12-12T05:46:49.919Z,5.48
2018-12-12T05:47:48.172Z,5.37
2018-12-12T05:48:48.756Z,5.45
2018-12-12T05:49:47.746Z,5.45
2018-12-12T05:50:45.642Z,5.66
2018-12-12T05:51:47.990Z,5.63
2018-12-12T05:52:45.625Z,5.65
2018-12-12T05:53:48.060Z,5.62
2018-12-12T05:54:49.656Z,5.62
2018-12-12T05:55:47.925Z,5.70
2018-12-12T05:56:52.312Z,5.69
2018-12-12T05:57:48.099Z,5.75
2018-12-12T05:58:45.540Z,5.75
2018-12-12T05:59:47.527Z,5.80
2018-12-12T06:00:45.529Z,5.78
2018-12-12T06:01:49.730Z,5.80
2018-12-12T06:02:48.434Z,5.73
2018-12-12T06:03:48.255Z,5.78
2018-12-12T06:04:48.611Z,5.77
2018-12-12T06:05:47.493Z,5.69
2018-12-12T06:06:47.235Z,5.67
2018-12-12T06:07:47.411Z,5.65
2018-12-12T06:08:45.464Z,5.73
2018-12-12T06:09:47.594Z,5.73
2018-12-12T06:10:45.451Z,5.63
2018-12-12T06:11:48.229Z,5.66
2018-12-12T06:12:45.463Z,5.65
2018-12-12T06:13:47.766Z,5.67
2018-12-12T06:14:45.518Z,5.65
2018-12-12T06:15:47.031Z,5.60
2018-12-12T06:16:45.423Z,5.63
2018-12-12T06:17:47.087Z,5.66
2018-12-12T06:18:45.481Z,5.62
2018-12-12T06:19:47.444Z,5.66
2018-12-12T06:20:45.400Z,5.73
2018-12-12T06:21:46.772Z,5.73
2018-12-12T06:22:45.359Z,5.74
2018-12-12T06:23:46.412Z,5.74
2018-12-12T06:24:45.336Z,5.63
2018-12-12T06:25:45.360Z,5.77
2018-12-12T06:26:45.305Z,5.78
2018-12-12T06:27:45.397Z,5.80
2018-12-12T06:28:45.320Z,5.81
2018-12-12T06:29:45.398Z,5.95
2018-12-12T06:30:48.165Z,5.81
2018-12-12T06:31:45.273Z,5.74
2018-12-12T06:32:48.007Z,5.92
2018-12-12T06:33:47.591Z,5.75
2018-12-12T06:34:45.252Z,5.90
2018-12-12T06:35:45.257Z,5.87
2018-12-12T06:36:45.361Z,5.84
2018-12-12T06:37:48.939Z,5.84
2018-12-12T06:38:45.221Z,5.92
2018-12-12T06:39:47.886Z,5.93
2018-12-12T06:40:45.204Z,5.98
2018-12-12T06:41:47.890Z,5.87
2018-12-12T06:42:47.692Z,5.78
2018-12-12T06:43:47.273Z,5.85
2018-12-12T06:44:45.202Z,5.92
2018-12-12T06:45:47.416Z,5.84
2018-12-12T06:46:47.811Z,5.74
2018-12-12T06:47:47.681Z,5.80
2018-12-12T06:48:48.131Z,5.81
2018-12-12T06:49:46.735Z,5.77
2018-12-12T06:50:45.145Z,5.88
2018-12-12T06:51:48.196Z,5.87
2018-12-12T06:52:46.670Z,5.92
2018-12-12T06:53:45.113Z,5.96
2018-12-12T06:54:47.340Z,5.95
2018-12-12T06:55:45.105Z,5.92
2018-12-12T06:56:45.197Z,6.02
2018-12-12T06:57:49.745Z,5.90
2018-12-12T06:58:45.062Z,5.93
2018-12-12T06:59:47.323Z,5.85
2018-12-12T07:00:45.063Z,5.98
2018-12-12T07:01:47.349Z,5.99
2018-12-12T07:02:45.042Z,6.02
2018-12-12T07:03:47.532Z,5.95
2018-12-12T07:04:49.071Z,5.90
2018-12-12T07:05:47.231Z,5.90
2018-12-12T07:06:45.011Z,5.98
2018-12-12T07:07:47.279Z,5.90
2018-12-12T07:09:07.951Z,5.87
2018-12-12T07:09:46.129Z,5.88
2018-12-12T07:10:47.048Z,5.75
2018-12-12T07:11:47.261Z,5.85
2018-12-12T07:12:44.958Z,5.77
2018-12-12T07:13:48.067Z,5.85
2018-12-12T07:14:44.955Z,5.93
2018-12-12T07:15:47.548Z,5.85
2018-12-12T07:16:48.511Z,5.92
2018-12-12T07:17:44.932Z,6.01
2018-12-12T07:18:47.039Z,5.90
2018-12-12T07:19:47.182Z,5.88
2018-12-12T07:20:45.014Z,5.92
2018-12-12T07:21:46.247Z,5.87
2018-12-12T07:22:46.707Z,5.95
2018-12-12T07:23:47.041Z,5.90
2018-12-12T07:24:46.787Z,5.90
2018-12-12T07:25:46.578Z,5.88
2018-12-12T07:26:46.447Z,6.03
2018-12-12T07:27:47.069Z,5.93
2018-12-12T07:28:46.479Z,5.90
2018-12-12T07:29:47.092Z,5.90
2018-12-12T07:30:47.430Z,6.03
2018-12-12T07:31:46.813Z,6.03
2018-12-12T07:32:48.209Z,6.05
2018-12-12T07:33:46.749Z,6.05
2018-12-12T07:34:46.342Z,6.13
2018-12-12T07:35:46.779Z,6.11
2018-12-12T07:36:46.597Z,6.03
2018-12-12T07:37:46.814Z,6.03
2018-12-12T07:38:46.437Z,6.03
2018-12-12T07:39:46.314Z,6.02
2018-12-12T07:40:47.275Z,5.88
2018-12-12T07:41:44.763Z,6.02
2018-12-12T07:42:46.313Z,6.03
2018-12-12T07:43:46.542Z,6.01
2018-12-12T07:44:44.721Z,5.95
2018-12-12T07:45:44.712Z,6.01
2018-12-12T07:46:44.700Z,5.92
2018-12-12T07:47:47.734Z,5.90
2018-12-12T07:48:47.259Z,5.88
2018-12-12T07:49:46.820Z,6.02
2018-12-12T07:50:44.768Z,6.05
2018-12-12T07:51:45.952Z,6.06
2018-12-12T07:52:44.683Z,5.98
2018-12-12T07:53:44.781Z,6.17
2018-12-12T07:54:46.953Z,6.11
2018-12-12T07:55:47.737Z,6.13
2018-12-12T07:56:49.388Z,6.11
2018-12-12T07:57:46.505Z,6.06
2018-12-12T07:58:47.384Z,6.13
2018-12-12T07:59:45.800Z,6.14
2018-12-12T08:00:46.734Z,6.14
2018-12-12T08:01:44.605Z,6.13
2018-12-12T08:02:44.680Z,6.02
2018-12-12T08:03:49.165Z,6.11
2018-12-12T08:04:44.593Z,6.06
2018-12-12T08:05:44.701Z,6.11
2018-12-12T08:06:44.646Z,6.14
2018-12-12T08:07:46.586Z,6.14
2018-12-12T08:08:46.846Z,6.01
2018-12-12T08:09:46.300Z,6.03
2018-12-12T08:10:48.713Z,6.06
2018-12-12T08:11:46.197Z,6.10
2018-12-12T08:12:46.567Z,5.90
2018-12-12T08:13:46.269Z,6.10
2018-12-12T08:14:46.322Z,6.05
2018-12-12T08:15:46.725Z,6.05
2018-12-12T08:16:46.084Z,5.90
2018-12-12T08:17:46.234Z,6.01
2018-12-12T08:19:07.283Z,6.06
2018-12-12T08:19:46.352Z,6.03
2018-12-12T08:20:46.228Z,6.13
2018-12-12T08:21:46.557Z,6.10
2018-12-12T08:22:45.976Z,6.08
2018-12-12T08:23:47.265Z,6.16
2018-12-12T08:24:44.596Z,6.05
2018-12-12T08:25:47.275Z,6.16
2018-12-12T08:26:44.677Z,6.14
2018-12-12T08:27:44.711Z,6.03
2018-12-12T08:28:44.427Z,6.06
2018-12-12T08:29:47.191Z,5.90
2018-12-12T08:30:44.381Z,6.06
2018-12-12T08:31:46.214Z,6.13
2018-12-12T08:32:48.960Z,6.05
2018-12-12T08:33:47.925Z,6.13
2018-12-12T08:34:44.396Z,6.06
2018-12-12T08:35:46.405Z,6.13
2018-12-12T08:36:44.423Z,6.05
2018-12-12T08:37:46.252Z,6.02
2018-12-12T08:38:44.384Z,6.16
2018-12-12T08:39:44.342Z,6.13
2018-12-12T08:40:44.596Z,6.11
2018-12-12T08:41:45.824Z,6.08
2018-12-12T08:42:46.233Z,6.08
2018-12-12T08:43:46.675Z,6.14
2018-12-12T08:44:44.269Z,6.10
2018-12-12T08:45:46.061Z,6.11
2018-12-12T08:46:48.323Z,6.14
2018-12-12T08:47:44.255Z,6.13
2018-12-12T08:48:44.482Z,6.24
2018-12-12T08:49:48.474Z,6.24
2018-12-12T08:50:47.251Z,6.21
2018-12-12T08:51:47.307Z,6.25
2018-12-12T08:52:44.217Z,6.08
2018-12-12T08:53:44.244Z,6.06
2018-12-12T08:54:44.192Z,6.14
2018-12-12T08:55:44.179Z,6.10
2018-12-12T08:56:48.456Z,6.05
2018-12-12T08:57:45.859Z,6.08
2018-12-12T08:58:44.240Z,6.25
2018-12-12T08:59:44.151Z,6.28
2018-12-12T09:00:44.239Z,6.27
2018-12-12T09:01:44.224Z,6.38
2018-12-12T09:02:44.218Z,6.39
2018-12-12T09:03:44.162Z,6.35
2018-12-12T09:04:44.218Z,6.35
2018-12-12T09:05:44.419Z,6.35
2018-12-12T09:06:44.223Z,6.43
2018-12-12T09:07:44.102Z,6.39
2018-12-12T09:08:45.143Z,6.32
2018-12-12T09:09:45.171Z,6.33
2018-12-12T09:10:44.070Z,6.35
2018-12-12T09:11:44.049Z,6.45
2018-12-12T09:12:44.050Z,6.46
2018-12-12T09:13:44.188Z,6.53
2018-12-12T09:14:44.124Z,6.43
2018-12-12T09:15:46.307Z,6.55
2018-12-12T09:16:44.138Z,6.50
2018-12-12T09:17:44.070Z,6.50
2018-12-12T09:18:44.018Z,6.39
2018-12-12T09:19:44.157Z,6.50
2018-12-12T09:20:44.020Z,6.50
2018-12-12T09:21:44.000Z,6.53
2018-12-12T09:22:43.986Z,6.50
2018-12-12T09:23:43.957Z,6.43
2018-12-12T09:24:43.967Z,6.43
2018-12-12T09:25:43.971Z,6.51
2018-12-12T09:26:43.960Z,6.45
2018-12-12T09:27:43.951Z,6.45
2018-12-12T09:28:43.944Z,6.43
2018-12-12T09:29:45.957Z,6.35
2018-12-12T09:30:43.965Z,6.43
2018-12-12T09:31:43.918Z,6.42
2018-12-12T09:32:43.880Z,6.45
2018-12-12T09:33:43.910Z,6.53
2018-12-12T09:34:43.880Z,6.46
2018-12-12T09:35:45.899Z,6.51
2018-12-12T09:36:44.037Z,6.53
2018-12-12T09:37:43.895Z,6.55
2018-12-12T09:38:43.843Z,6.50
2018-12-12T09:39:43.872Z,6.54
2018-12-12T09:40:43.867Z,6.54
2018-12-12T09:41:43.836Z,6.58
2018-12-12T09:42:43.839Z,6.51
2018-12-12T09:43:43.879Z,6.65
2018-12-12T09:44:43.837Z,6.51
2018-12-12T09:45:43.820Z,6.69
2018-12-12T09:46:43.905Z,6.58
2018-12-12T09:47:43.789Z,6.68
2018-12-12T09:48:43.866Z,6.57
2018-12-12T09:49:43.824Z,6.64
2018-12-12T09:50:43.780Z,6.69
2018-12-12T09:51:43.771Z,6.69
2018-12-12T09:52:43.942Z,6.64
2018-12-12T09:53:43.824Z,6.60
2018-12-12T09:54:43.769Z,6.58
2018-12-12T09:55:43.889Z,6.55
2018-12-12T09:56:43.741Z,6.58
2018-12-12T09:57:43.738Z,6.72
2018-12-12T09:58:43.748Z,6.65
2018-12-12T09:59:43.764Z,6.64
2018-12-12T10:00:43.776Z,6.69
2018-12-12T10:01:43.680Z,6.68
2018-12-12T10:02:43.747Z,6.58
2018-12-12T10:03:43.690Z,6.81
2018-12-12T10:04:43.662Z,6.76
2018-12-12T10:05:43.680Z,6.91
2018-12-12T10:06:43.714Z,6.89
2018-12-12T10:07:43.711Z,6.81
2018-12-12T10:08:43.669Z,6.93
2018-12-12T10:09:43.710Z,6.76
2018-12-12T10:10:43.648Z,6.78
2018-12-12T10:11:43.790Z,6.79
2018-12-12T10:12:43.770Z,6.76
2018-12-12T10:13:43.728Z,6.73
2018-12-12T10:14:43.647Z,6.83
2018-12-12T10:15:47.097Z,6.78
2018-12-12T10:16:43.819Z,6.75
2018-12-12T10:17:44.411Z,6.65
2018-12-12T10:18:43.839Z,6.79
2018-12-12T10:19:44.767Z,6.75
2018-12-12T10:20:43.646Z,6.75
2018-12-12T10:21:44.383Z,6.73
2018-12-12T10:22:43.690Z,6.79
2018-12-12T10:23:43.599Z,6.83
2018-12-12T10:24:43.544Z,6.96
2018-12-12T10:25:48.519Z,6.94
2018-12-12T10:26:43.535Z,6.76
2018-12-12T10:27:43.542Z,6.83
2018-12-12T10:28:43.528Z,6.89
2018-12-12T10:29:46.710Z,6.89
2018-12-12T10:30:43.561Z,6.93
2018-12-12T10:31:43.523Z,6.94
2018-12-12T10:32:43.519Z,6.93
2018-12-12T10:33:43.617Z,7.04
2018-12-12T10:34:43.495Z,7.01
2018-12-12T10:35:43.605Z,6.94
2018-12-12T10:36:43.598Z,6.76
2018-12-12T10:37:44.551Z,6.79
2018-12-12T10:38:43.452Z,6.94
2018-12-12T10:39:43.455Z,6.94
2018-12-12T10:40:43.443Z,7.04
2018-12-12T10:41:43.442Z,7.14
2018-12-12T10:42:43.530Z,7.12
2018-12-12T10:43:43.400Z,7.11
2018-12-12T10:44:43.449Z,7.14
2018-12-12T10:45:43.539Z,7.12
2018-12-12T10:46:43.456Z,7.14
2018-12-12T10:47:43.486Z,7.29
2018-12-12T10:48:43.422Z,7.23
2018-12-12T10:49:43.495Z,7.33
2018-12-12T10:50:43.417Z,7.29
2018-12-12T10:51:43.552Z,7.15
2018-12-12T10:52:43.416Z,7.32
2018-12-12T10:53:43.393Z,7.36
2018-12-12T10:54:43.356Z,7.29
2018-12-12T10:55:43.369Z,7.42
2018-12-12T10:56:43.346Z,7.33
2018-12-12T10:57:44.481Z,7.41
2018-12-12T10:58:43.352Z,7.27
2018-12-12T10:59:43.544Z,7.23
2018-12-12T11:00:43.298Z,7.47
2018-12-12T11:01:43.303Z,7.48
2018-12-12T11:02:43.306Z,7.57
2018-12-12T11:03:47.076Z,7.45
2018-12-12T11:04:44.670Z,7.50
2018-12-12T11:05:44.619Z,7.52
2018-12-12T11:06:45.464Z,7.73
2018-12-12T11:07:45.265Z,7.58
2018-12-12T11:08:45.752Z,7.58
2018-12-12T11:09:43.386Z,7.52
2018-12-12T11:10:47.772Z,7.48
2018-12-12T11:11:51.760Z,7.51
2018-12-12T11:12:45.050Z,7.60
2018-12-12T11:13:51.721Z,7.62
2018-12-12T11:14:45.845Z,7.77
2018-12-12T11:15:51.864Z,7.76
2018-12-12T11:16:45.351Z,7.81
2018-12-12T11:17:43.204Z,7.70
2018-12-12T11:18:45.486Z,7.77
2018-12-12T11:19:45.217Z,7.88
2018-12-12T11:20:45.380Z,7.86
2018-12-12T11:21:45.194Z,7.91
2018-12-12T11:22:45.699Z,7.95
2018-12-12T11:23:45.443Z,7.91
2018-12-12T11:24:46.084Z,7.89
2018-12-12T11:25:45.352Z,7.85
2018-12-12T11:26:45.598Z,7.92
2018-12-12T11:27:46.283Z,7.88
2018-12-12T11:28:45.270Z,7.95
2018-12-12T11:29:46.279Z,7.92
2018-12-12T11:30:45.306Z,7.86
2018-12-12T11:31:45.877Z,7.89
2018-12-12T11:32:46.268Z,7.77
2018-12-12T11:33:50.317Z,7.89
2018-12-12T11:34:51.635Z,7.89
2018-12-12T11:35:45.717Z,7.67
2018-12-12T11:36:48.100Z,7.76
2018-12-12T11:37:45.846Z,7.79
2018-12-12T11:38:45.205Z,7.81
2018-12-12T11:39:45.079Z,7.86
2018-12-12T11:40:45.027Z,7.84
2018-12-12T11:41:44.720Z,7.77
2018-12-12T11:42:45.784Z,7.74
2018-12-12T11:43:44.612Z,7.71
2018-12-12T11:44:45.299Z,7.71
2018-12-12T11:45:44.988Z,7.84
2018-12-12T11:47:20.733Z,7.94
2018-12-12T11:47:43.107Z,7.77
2018-12-12T11:48:45.776Z,7.82
2018-12-12T11:49:45.032Z,7.74
2018-12-12T11:50:45.390Z,7.63
2018-12-12T11:51:45.783Z,7.71
2018-12-12T11:52:45.274Z,7.62
2018-12-12T11:53:44.750Z,7.69
2018-12-12T11:54:45.733Z,7.70
2018-12-12T11:55:44.991Z,7.54
2018-12-12T11:56:46.274Z,7.55
2018-12-12T11:57:46.284Z,7.69
2018-12-12T11:58:45.365Z,7.63
2018-12-12T11:59:51.752Z,7.74
2018-12-12T12:00:45.757Z,7.51
2018-12-12T12:01:45.252Z,7.55
2018-12-12T12:02:45.151Z,7.57
2018-12-12T12:03:45.152Z,7.67
2018-12-12T12:04:45.646Z,7.74
2018-12-12T12:05:45.005Z,7.69
2018-12-12T12:06:45.792Z,7.69
2018-12-12T12:07:44.788Z,7.52
2018-12-12T12:08:44.840Z,7.54
2018-12-12T12:09:45.094Z,7.70
2018-12-12T12:10:45.714Z,7.95
2018-12-12T12:11:44.783Z,8.02
2018-12-12T12:12:46.297Z,8.06
2018-12-12T12:13:44.572Z,8.03
2018-12-12T12:14:45.232Z,7.94
2018-12-12T12:15:45.223Z,7.92
2018-12-12T12:16:45.001Z,8.09
2018-12-12T12:17:45.281Z,7.88
2018-12-12T12:18:44.939Z,7.73
2018-12-12T12:19:45.777Z,8.07
2018-12-12T12:20:44.466Z,8.20
2018-12-12T12:21:44.684Z,8.36
2018-12-12T12:22:46.656Z,8.43
2018-12-12T12:23:46.540Z,8.34
2018-12-12T12:24:44.605Z,8.60
2018-12-12T12:25:44.701Z,8.82
2018-12-12T12:26:45.219Z,9.06
2018-12-12T12:27:45.058Z,9.40
2018-12-12T12:28:45.782Z,9.15
2018-12-12T12:29:44.749Z,9.15
2018-12-12T12:30:45.190Z,9.48
2018-12-12T12:31:46.258Z,9.89
2018-12-12T12:32:45.188Z,10.01
2018-12-12T12:33:47.869Z,9.59
2018-12-12T12:34:45.208Z,9.19
2018-12-12T12:35:44.533Z,9.06
2018-12-12T12:36:44.421Z,9.03
2018-12-12T12:37:44.530Z,8.89
2018-12-12T12:38:44.487Z,8.96
2018-12-12T12:39:44.803Z,9.06
2018-12-12T12:40:46.862Z,8.89
2018-12-12T12:41:45.613Z,9.01
2018-12-12T12:42:44.687Z,8.88
2018-12-12T12:43:46.058Z,8.88
2018-12-12T12:44:45.221Z,8.76
2018-12-12T12:45:44.885Z,8.68
2018-12-12T12:46:44.622Z,8.54
2018-12-12T12:47:44.871Z,8.55
2018-12-12T12:48:45.603Z,8.36
2018-12-12T12:49:45.281Z,8.32
2018-12-12T12:50:45.271Z,8.43
2018-12-12T12:51:45.215Z,8.39
2018-12-12T12:52:44.793Z,8.45
2018-12-12T12:53:44.903Z,8.45
2018-12-12T12:54:44.512Z,8.46
2018-12-12T12:55:45.227Z,8.47
2018-12-12T12:56:44.271Z,8.40
2018-12-12T12:57:47.484Z,8.37
2018-12-12T12:58:48.801Z,8.40
2018-12-12T12:59:46.849Z,8.50
2018-12-12T13:00:46.613Z,8.29
2018-12-12T13:01:44.732Z,8.13
2018-12-12T13:02:45.262Z,8.31
2018-12-12T13:03:45.237Z,8.27
2018-12-12T13:04:45.779Z,8.39
2018-12-12T13:05:45.785Z,8.46
2018-12-12T13:06:45.203Z,8.36
2018-12-12T13:07:44.503Z,8.34
2018-12-12T13:08:45.229Z,8.40
2018-12-12T13:09:44.556Z,8.39
2018-12-12T13:10:44.819Z,8.29
2018-12-12T13:11:44.780Z,8.45
2018-12-12T13:12:44.499Z,8.50
2018-12-12T13:13:50.686Z,8.45
2018-12-12T13:14:44.942Z,8.54
2018-12-12T13:15:44.885Z,8.39
2018-12-12T13:16:44.827Z,8.37
2018-12-12T13:17:44.829Z,8.27
2018-12-12T13:18:44.773Z,8.28